x

North Nomad (46184) Wave Buoy

9:00am - Mon 26th Jun 2017 All times are AKDT. -8 hours from GMT.

  • Sig Wave height 5.6ft
  • Peak Period 7s
  • Wind
    18mph, 20mph gusts
  • Sea Temp 51°f
  • Air Temp 50°f
  • Sea Pressure 1024.4mb
  • North Nomad
  • North Nomad

More Historic Weather Station data

Upgrade to MSW Pro to gain access to the past 30 days of data for over 8000 Wavebouys and Weather Stations around the globe.

Join Pro

Comparision Forecast

View Surf forecast
   
Mon 06/26 9:00am 5.5ft 7s 18 20 mph 1024.4mb 51f 50f
8:00am 5ft 15s 18 22 mph 1024mb 51f 51f
7:00am 5ft 15s 18 22 mph 1023.4mb 51f 51f
6:00am 5ft 7s 18 22 mph 1023mb 51f 51f
5:00am 5ft 7s 18 22 mph 1022.6mb 51f 50f
4:00am 5ft 7s 16 20 mph 1022.3mb 51f 51f
3:00am 5ft 7s 18 20 mph 1021.9mb 51f 51f
2:00am 5ft 8s 16 18 mph 1021.5mb 51f 51f
1:00am 5ft 7s 13 16 mph 1021.2mb 51f 51f
12:00am 5.5ft 15s 13 18 mph 1020.9mb 51f 51f
Sun 06/25 11:00pm 5ft 14s 16 18 mph 1020.4mb 51f 51f
10:00pm 5.5ft 15s 16 18 mph 1019.9mb 51f 51f
9:00pm 6ft 7s 16 18 mph 1019.2mb 51f 51f
8:00pm 6ft 7s 16 20 mph 1018.7mb 51f 51f
7:00pm 6ft 7s 16 18 mph 1018.6mb 51f 51f
6:00pm 6.5ft 8s 13 18 mph 1018.1mb 51f 51f
5:00pm 6ft 7s 18 22 mph 1017.9mb 51f 52f
4:00pm 6.5ft 8s 16 18 mph 1017.6mb 51f 52f
3:00pm 6ft 8s 20 22 mph 1017.2mb 51f 52f
2:00pm 5.5ft 8s 18 22 mph 1016.7mb 51f 51f
1:00pm 5ft 8s 18 22 mph 1016.1mb 51f 51f
12:00pm 5.5ft 8s 13 16 mph 1015.7mb 51f 50f
11:00am 5ft 8s 16 18 mph 1015.3mb 51f 51f
10:00am 5ft 8s 13 18 mph 1014.8mb 51f 51f
9:00am 5.5ft 9s 13 16 mph 1014.4mb 51f 50f
8:00am 6ft 8s 13 16 mph 1014.1mb 51f 51f
7:00am 5.5ft 9s 16 18 mph 1013.7mb 51f 50f
6:00am 5.5ft 9s 16 20 mph 1013.6mb 51f 50f
5:00am 5.5ft 9s 16 18 mph 1013.5mb 51f 50f
4:00am 6ft 16s 13 18 mph 1013.4mb 51f 50f
3:00am 6ft 9s 13 16 mph 1013.5mb 51f 50f
2:00am 6ft 8s 13 18 mph 1013.5mb 51f 49f
1:00am 6ft 8s 11 13 mph 1013.8mb 51f 49f
12:00am 7ft 10s 13 16 mph 1014mb 51f 50f
Sat 06/24 11:00pm 6.5ft 9s 13 18 mph 1014.2mb 51f 50f
10:00pm 6.5ft 10s 11 13 mph 1014.3mb 51f 49f
9:00pm 6ft 10s 11 13 mph 1014.1mb 51f 49f
8:00pm 6.5ft 10s 11 13 mph 1014mb 51f 50f
7:00pm 7ft 10s 11 13 mph 1014.1mb 51f 50f
6:00pm 7ft 9s 16 18 mph 1014mb 51f 49f
5:00pm 8ft 10s 13 18 mph 1014.3mb 51f 50f
4:00pm 9ft 11s 16 18 mph 1014.3mb 51f 50f
3:00pm 8.5ft 10s 18 20 mph 1014.5mb 51f 50f
2:00pm 9.5ft 9s 18 22 mph 1014.8mb 51f 50f
1:00pm 9ft 10s 20 22 mph 1014.7mb 51f 50f
12:00pm 9ft 9s 18 22 mph 1014.7mb 51f 51f
11:00am 9ft 8s 18 22 mph 1014.8mb 51f 50f
10:00am 8.5ft 8s 20 22 mph 1014.6mb 51f 50f
9:00am 8ft 8s 20 27 mph 1014.6mb 51f 50f
8:00am 8ft 8s 20 25 mph 1014.7mb 51f 50f
7:00am 8ft 8s 22 27 mph 1014.8mb 51f 50f
6:00am 8ft 8s 25 31 mph 1015mb 51f 50f
5:00am 7.5ft 7s 25 29 mph 1015mb 51f 49f
4:00am  -   -  27
mph
1015.2mb - 50f
3:00am 7ft 7s 22 27 mph 1015.5mb 51f 50f
2:00am 7ft 6s 22 29 mph 1015.9mb 51f 50f
1:00am 7ft 6s 22 27 mph 1016.1mb 51f 49f
12:00am 6.5ft 6s 20 25 mph 1016.3mb 51f 51f
Fri 06/23 11:00pm 6.5ft 6s 20 25 mph 1016.6mb 51f 51f
10:00pm 6.5ft 6s 22 27 mph 1017mb 51f 51f
9:00pm 6ft 6s 22 27 mph 1017.1mb 51f 51f
8:00pm 6.5ft 7s 22 27 mph 1017.7mb 51f 51f
7:00pm 6.5ft 7s 25 29 mph 1018.6mb 51f 51f
6:00pm 6ft 7s 22 29 mph 1019.3mb 51f 51f
5:00pm 6ft 7s 22 27 mph 1020.2mb 51f 51f
4:00pm 5.5ft 7s 20 22 mph 1021mb 51f 51f
3:00pm 6ft 6s 20 22 mph 1021.5mb 51f 51f
2:00pm 6ft 6s 22 25 mph 1021.9mb 51f 51f
1:00pm 6.5ft 6s 22 25 mph 1022.5mb 51f 51f
12:00pm 6ft 5s 22 29 mph 1022.9mb 51f 51f
11:00am 6ft 5s 22 27 mph 1023.6mb 51f 50f
10:00am 5.5ft 5s 25 29 mph 1023.5mb 51f 50f
9:00am 5ft  -  22 27 mph 1024.2mb 51f 51f
8:00am 4.5ft 15s 22 27 mph 1024.9mb 51f 51f
7:00am 4.5ft 18s 22 27 mph 1025.7mb 51f 51f
6:00am 4ft 14s 20 25 mph 1026.2mb 51f 51f
5:00am 3.5ft 14s 20 22 mph 1026.3mb 51f 51f
4:00am  -   -  18
mph
- - -
3:00am 3.5ft 15s 18 22 mph 1027.2mb 52f 51f
2:00am 3.5ft 14s 16 20 mph 1027.8mb 52f 51f
1:00am 3.5ft 14s 16 18 mph 1027.9mb 52f 51f
12:00am 3ft 16s 13 16 mph 1028.5mb 52f 52f
Thu 06/22 11:00pm 3.5ft 16s 13 16 mph 1029mb 53f 52f
10:00pm 3ft 15s 11 13 mph 1029.3mb 53f 52f
9:00pm 3ft 14s 9 11 mph 1029.9mb 53f 52f
8:00pm 2.5ft 14s 9 11 mph 1029.9mb 53f 51f
7:00pm 3ft 16s 9 9 mph 1030.2mb 53f 51f